Time;durP1;ratioP1;P1;durP2;ratioP2;P2;SDS_P1;SDS_P2;PMS_P1;PMS_P2;Temp;Humidity;BMP_temperature;BMP_pressure;BME280_temperature;BME280_humidity;BME280_pressure;Samples;Min_cycle;Max_cycle;Signal;HPM_P1;HPM_P2
2022/03/25 00:00:14;;;;;;;23.05;18.52;;;;;;;4.75;71.84;96769.41;5029525;28;24506;-72
2022/03/25 00:02:42;;;;;;;19.67;17.67;;;;;;;4.82;71.03;96773.53;5030215;28;24438;-73
2022/03/25 00:05:09;;;;;;;22.25;17.65;;;;;;;4.79;71.73;96772.75;5030051;28;24435;-73
2022/03/25 00:07:36;;;;;;;22.13;18.50;;;;;;;4.75;72.03;96781.41;5030045;28;24435;-73
2022/03/25 00:10:03;;;;;;;20.13;16.90;;;;;;;4.76;72.02;96775.41;5029736;28;24498;-73
2022/03/25 00:12:29;;;;;;;22.00;17.52;;;;;;;4.77;71.78;96774.50;5030308;28;24431;-72
2022/03/25 00:14:56;;;;;;;22.53;16.33;;;;;;;4.78;71.44;96771.91;5029348;28;24467;-73
2022/03/25 00:17:22;;;;;;;20.80;17.33;;;;;;;4.68;71.24;96774.75;5029866;28;24439;-73
2022/03/25 00:19:50;;;;;;;22.53;17.50;;;;;;;4.61;71.87;96764.59;5029520;28;24439;-73
2022/03/25 00:22:17;;;;;;;21.13;17.67;;;;;;;4.57;72.33;96768.13;5030017;28;24439;-73
2022/03/25 00:24:43;;;;;;;18.50;16.35;;;;;;;4.57;72.03;96765.56;5029889;28;24439;-73
2022/03/25 00:27:09;;;;;;;24.95;16.90;;;;;;;4.61;71.71;96768.91;5028937;28;24439;-73
2022/03/25 00:29:36;;;;;;;20.45;16.67;;;;;;;4.64;71.49;96763.69;5029549;28;25061;-72
2022/03/25 00:32:03;;;;;;;18.42;16.13;;;;;;;4.66;71.47;96766.22;5029802;28;24501;-73
2022/03/25 00:34:30;;;;;;;19.05;17.00;;;;;;;4.63;71.66;96766.28;5029784;28;24479;-74
2022/03/25 00:36:57;;;;;;;20.73;16.87;;;;;;;4.52;72.09;96771.66;5029801;28;24459;-74
2022/03/25 00:39:24;;;;;;;22.98;15.88;;;;;;;4.45;72.50;96764.97;5033632;28;24436;-74
2022/03/25 00:41:50;;;;;;;22.13;16.33;;;;;;;4.46;72.60;96764.13;5033662;28;25205;-73
2022/03/25 00:44:18;;;;;;;18.38;15.60;;;;;;;4.49;72.95;96753.81;5033736;28;24443;-73
2022/03/25 00:46:44;;;;;;;16.85;14.65;;;;;;;4.52;73.87;96756.28;5033155;28;24435;-73
2022/03/25 00:49:11;;;;;;;18.88;15.25;;;;;;;4.54;73.16;96757.09;5032749;28;24794;-72
2022/03/25 00:51:38;;;;;;;22.30;15.68;;;;;;;4.45;72.57;96757.28;5017798;28;24464;-73
2022/03/25 00:54:05;;;;;;;25.02;17.70;;;;;;;4.36;72.57;96750.66;5033561;28;24443;-73
2022/03/25 00:56:32;;;;;;;21.58;16.58;;;;;;;4.30;73.00;96751.66;5032900;28;24447;-73
2022/03/25 00:58:59;;;;;;;18.95;16.33;;;;;;;4.22;73.30;96748.38;5032810;28;24439;-74
2022/03/25 01:01:26;;;;;;;22.43;17.40;;;;;;;4.13;73.90;96741.75;5032876;28;24454;-73
2022/03/25 01:03:52;;;;;;;23.20;18.27;;;;;;;4.02;75.38;96743.72;5033497;28;24527;-73
2022/03/25 01:06:19;;;;;;;20.65;18.50;;;;;;;3.85;76.15;96738.09;5033303;28;24431;-73
2022/03/25 01:08:45;;;;;;;27.95;18.83;;;;;;;3.84;76.08;96746.66;5033457;28;24439;-72
2022/03/25 01:11:13;;;;;;;20.40;17.58;;;;;;;3.86;76.13;96745.75;5032566;28;24436;-73
2022/03/25 01:13:40;;;;;;;26.70;18.05;;;;;;;3.91;76.72;96739.69;5033354;28;24523;-73
2022/03/25 01:16:07;;;;;;;19.08;15.43;;;;;;;3.83;77.67;96750.09;5032967;28;24980;-73
2022/03/25 01:18:34;;;;;;;17.15;13.77;;;;;;;3.96;77.96;96738.69;5032772;28;24547;-73
2022/03/25 01:21:00;;;;;;;18.23;15.20;;;;;;;4.04;78.29;96747.09;5033023;28;24438;-73
2022/03/25 01:23:27;;;;;;;21.50;17.08;;;;;;;4.02;76.99;96743.72;5032736;28;24443;-73
2022/03/25 01:25:54;;;;;;;28.80;18.60;;;;;;;3.88;75.17;96738.88;5032874;28;24461;-73
2022/03/25 01:28:23;;;;;;;19.70;17.60;;;;;;;3.87;73.43;96734.63;5032791;28;24547;-73
2022/03/25 01:30:49;;;;;;;19.35;17.27;;;;;;;3.59;75.04;96739.44;5050298;23;24477;-73
2022/03/25 01:33:16;;;;;;;23.25;18.73;;;;;;;3.33;78.29;96739.94;4985087;28;24442;-72
2022/03/25 01:35:43;;;;;;;20.70;16.70;;;;;;;3.32;78.53;96743.41;4985278;28;24452;-73
2022/03/25 01:38:09;;;;;;;22.50;17.07;;;;;;;3.34;78.22;96739.09;4977874;28;24465;-74
2022/03/25 01:40:36;;;;;;;22.50;18.67;;;;;;;3.37;77.75;96738.19;4984393;28;24441;-73
2022/03/25 01:43:02;;;;;;;22.42;18.70;;;;;;;3.35;78.77;96732.25;4978231;28;24982;-73
2022/03/25 01:45:34;;;;;;;22.27;17.92;;;;;;;3.40;78.93;96733.00;4976606;28;24488;-73
2022/03/25 01:48:01;;;;;;;21.80;18.58;;;;;;;3.43;78.18;96727.84;4990296;28;24831;-72
2022/03/25 01:50:28;;;;;;;23.58;18.52;;;;;;;3.47;78.05;96731.19;4976587;28;24811;-74
2022/03/25 01:52:54;;;;;;;21.80;17.90;;;;;;;3.52;77.83;96727.66;4974103;28;24465;-74
2022/03/25 01:55:26;;;;;;;21.52;17.50;;;;;;;3.58;77.19;96731.81;4973380;28;24438;-71
2022/03/25 01:57:55;;;;;;;20.95;17.58;;;;;;;3.63;76.97;96735.13;4973711;28;24440;-73
2022/03/25 02:00:22;;;;;;;21.33;18.33;;;;;;;3.69;76.03;96734.16;4973497;28;24441;-73
2022/03/25 02:02:50;;;;;;;21.35;17.70;;;;;;;3.71;75.83;96727.28;4985015;28;24440;-73
2022/03/25 02:05:18;;;;;;;27.97;16.77;;;;;;;3.75;76.24;96728.94;4990809;28;24998;-72
2022/03/25 02:07:45;;;;;;;19.70;17.48;;;;;;;3.75;75.85;96728.94;4973651;28;25224;-73
2022/03/25 02:10:12;;;;;;;24.50;18.75;;;;;;;3.68;75.92;96730.75;4981283;28;24445;-72
2022/03/25 02:12:38;;;;;;;20.55;17.65;;;;;;;3.63;76.21;96730.00;4992404;28;25034;-73
2022/03/25 02:15:06;;;;;;;21.27;18.08;;;;;;;3.57;77.04;96728.41;4991421;28;24440;-72
2022/03/25 02:17:33;;;;;;;21.63;17.65;;;;;;;3.42;77.57;96730.44;4989097;28;24453;-73
2022/03/25 02:20:07;;;;;;;19.50;16.40;;;;;;;3.40;78.80;96733.84;4982103;28;24444;-73
2022/03/25 02:22:35;;;;;;;20.35;18.27;;;;;;;3.30;78.03;96732.34;4979122;28;24433;-72
2022/03/25 02:25:03;;;;;;;18.92;16.80;;;;;;;3.20;78.07;96741.06;4980939;28;24516;-73
2022/03/25 02:27:31;;;;;;;20.37;18.23;;;;;;;3.11;76.83;96734.38;4987838;28;25093;-73
2022/03/25 02:29:57;;;;;;;21.42;17.02;;;;;;;3.08;77.95;96737.03;4972971;28;24492;-72
2022/03/25 02:32:24;;;;;;;22.40;19.15;;;;;;;3.08;77.64;96731.91;4984701;28;24452;-73
2022/03/25 02:34:50;;;;;;;20.40;17.63;;;;;;;2.97;78.65;96732.97;4978661;28;24445;-73
2022/03/25 02:37:17;;;;;;;25.08;19.63;;;;;;;2.96;79.20;96728.69;4982810;28;24461;-73
2022/03/25 02:39:45;;;;;;;23.30;19.80;;;;;;;2.89;79.78;96733.94;4981008;28;24443;-73
2022/03/25 02:42:11;;;;;;;24.98;19.60;;;;;;;2.84;80.08;96727.19;4992174;28;24444;-73
2022/03/25 02:44:37;;;;;;;24.20;19.52;;;;;;;2.85;80.27;96734.00;4976889;28;24437;-73
2022/03/25 02:47:05;;;;;;;23.45;19.30;;;;;;;2.81;81.44;96729.81;4980777;28;24466;-72
2022/03/25 02:49:31;;;;;;;22.48;18.73;;;;;;;2.82;80.74;96736.63;4978537;28;24871;-73
2022/03/25 02:51:58;;;;;;;22.23;18.55;;;;;;;2.83;81.14;96730.63;4985306;28;25227;-73
2022/03/25 02:54:24;;;;;;;23.38;18.88;;;;;;;2.87;81.83;96732.28;4991725;28;24433;-72
2022/03/25 02:56:52;;;;;;;23.80;18.23;;;;;;;2.94;80.51;96733.84;4976515;28;24460;-72
2022/03/25 02:59:18;;;;;;;24.48;18.60;;;;;;;2.99;80.52;96726.09;4985398;28;24441;-72
2022/03/25 03:01:45;;;;;;;22.20;17.60;;;;;;;3.04;80.59;96734.53;4972571;28;24480;-73
2022/03/25 03:04:11;;;;;;;21.77;17.05;;;;;;;3.05;79.79;96726.84;4985517;28;24444;-74
2022/03/25 03:06:38;;;;;;;19.95;16.30;;;;;;;3.11;79.43;96729.25;4978538;28;24433;-73
2022/03/25 03:09:05;;;;;;;18.33;16.10;;;;;;;3.17;79.17;96733.44;4991587;28;24443;-72
2022/03/25 03:11:31;;;;;;;20.55;18.05;;;;;;;3.20;78.75;96735.97;4981622;28;24803;-73
2022/03/25 03:13:59;;;;;;;19.98;16.88;;;;;;;3.06;77.64;96732.78;4973505;28;24434;-73
2022/03/25 03:16:26;;;;;;;19.17;16.20;;;;;;;3.01;77.57;96732.03;4973907;28;24819;-73
2022/03/25 03:18:52;;;;;;;26.77;16.50;;;;;;;2.79;76.70;96731.56;4991515;28;24439;-73
2022/03/25 03:21:20;;;;;;;18.03;15.97;;;;;;;2.55;76.97;96733.63;4983409;28;24449;-74
2022/03/25 03:23:47;;;;;;;20.38;15.73;;;;;;;2.38;79.90;96731.34;4985990;28;24448;-72
2022/03/25 03:26:13;;;;;;;18.27;15.45;;;;;;;2.26;81.80;96730.69;4975111;28;24803;-72
2022/03/25 03:28:40;;;;;;;20.25;15.90;;;;;;;2.24;82.31;96733.28;4987365;28;25001;-73
2022/03/25 03:31:09;;;;;;;18.35;16.42;;;;;;;2.22;83.03;96737.53;4971637;28;24449;-73
2022/03/25 03:33:35;;;;;;;20.67;16.77;;;;;;;2.27;83.13;96729.84;4981195;28;24452;-73
2022/03/25 03:36:01;;;;;;;21.33;17.35;;;;;;;2.26;82.89;96731.50;4991165;28;24433;-72
2022/03/25 03:38:28;;;;;;;24.73;17.63;;;;;;;2.33;82.61;96728.00;4973588;28;24496;-73
2022/03/25 03:40:54;;;;;;;21.65;16.98;;;;;;;2.16;84.13;96732.53;4973454;28;24448;-73
2022/03/25 03:43:21;;;;;;;20.20;16.88;;;;;;;1.99;84.71;96724.25;4985229;28;24440;-73
2022/03/25 03:45:47;;;;;;;22.35;16.48;;;;;;;2.03;84.86;96728.47;4980642;28;24436;-73
2022/03/25 03:48:15;;;;;;;24.33;17.27;;;;;;;1.89;86.07;96732.06;4991676;28;24495;-72
2022/03/25 03:50:42;;;;;;;21.13;18.10;;;;;;;1.83;87.84;96728.75;4975213;28;24438;-73
2022/03/25 03:53:09;;;;;;;19.73;17.67;;;;;;;1.80;87.44;96726.22;4987482;28;24540;-73
2022/03/25 03:55:36;;;;;;;20.02;16.90;;;;;;;1.86;88.34;96721.03;4981137;28;24440;-73
2022/03/25 03:58:02;;;;;;;19.45;17.35;;;;;;;1.97;87.84;96726.84;4980553;28;24457;-71
2022/03/25 04:00:28;;;;;;;22.85;18.02;;;;;;;2.08;87.61;96727.53;4972049;28;24449;-73
2022/03/25 04:02:55;;;;;;;26.07;17.27;;;;;;;2.14;86.59;96718.94;4985411;28;24568;-73
2022/03/25 04:05:23;;;;;;;22.52;17.20;;;;;;;2.13;85.65;96725.75;4990831;28;24472;-73
2022/03/25 04:07:50;;;;;;;20.52;17.95;;;;;;;2.04;86.56;96725.91;4974809;28;24449;-73
2022/03/25 04:10:19;;;;;;;22.75;17.70;;;;;;;2.08;86.97;96725.00;4982731;28;24448;-73
2022/03/25 04:12:45;;;;;;;20.55;16.65;;;;;;;2.11;86.94;96727.50;4988731;28;24437;-74
2022/03/25 04:15:13;;;;;;;19.50;17.05;;;;;;;2.15;86.76;96725.72;4978614;28;25005;-74
2022/03/25 04:17:40;;;;;;;19.17;17.17;;;;;;;2.23;86.06;96721.38;4994615;28;24453;-74
2022/03/25 04:20:08;;;;;;;19.98;16.77;;;;;;;2.28;85.93;96729.81;4984849;28;24441;-74
2022/03/25 04:22:36;;;;;;;21.58;17.25;;;;;;;2.26;85.86;96723.00;4975360;28;24528;-73
2022/03/25 04:25:02;;;;;;;21.15;17.23;;;;;;;2.30;84.26;96715.28;4973657;28;24417;-73
2022/03/25 04:27:29;;;;;;;21.02;16.42;;;;;;;2.35;84.88;96720.34;4973745;28;24524;-72
2022/03/25 04:29:56;;;;;;;20.17;16.75;;;;;;;2.35;84.65;96722.88;4973193;28;24962;-74
2022/03/25 04:32:23;;;;;;;20.10;17.47;;;;;;;2.34;83.85;96724.59;4973904;28;24425;-74
2022/03/25 04:34:49;;;;;;;22.25;18.17;;;;;;;2.27;83.54;96729.84;4973540;28;24452;-73
2022/03/25 04:37:16;;;;;;;22.23;17.83;;;;;;;2.25;82.78;96718.78;4973831;28;24566;-74
2022/03/25 04:39:43;;;;;;;20.92;17.52;;;;;;;2.08;84.03;96731.81;4974481;28;24437;-74
2022/03/25 04:42:10;;;;;;;20.00;17.17;;;;;;;1.96;84.31;96721.75;4975133;28;24430;-73
2022/03/25 04:44:36;;;;;;;20.92;17.17;;;;;;;1.89;85.22;96731.19;4975367;28;24428;-74
2022/03/25 04:47:03;;;;;;;22.05;17.35;;;;;;;1.94;85.78;96729.44;4975196;28;24776;-74
2022/03/25 04:49:30;;;;;;;21.38;17.17;;;;;;;1.94;86.09;96727.72;4974988;28;24432;-73
2022/03/25 04:51:56;;;;;;;22.00;17.55;;;;;;;2.01;85.10;96728.50;4975001;28;24440;-72
2022/03/25 04:54:22;;;;;;;22.40;17.55;;;;;;;2.05;84.87;96724.19;4975109;28;24496;-73
2022/03/25 04:56:50;;;;;;;20.15;18.00;;;;;;;2.02;84.94;96729.34;4972595;28;25005;-73
2022/03/25 04:59:17;;;;;;;18.85;16.83;;;;;;;2.03;84.27;96731.00;4974701;28;24432;-73
2022/03/25 05:01:43;;;;;;;27.30;18.23;;;;;;;1.97;84.69;96729.41;4975040;28;24445;-73
2022/03/25 05:04:10;;;;;;;22.83;18.30;;;;;;;1.84;86.67;96725.31;4974903;28;24440;-74
2022/03/25 05:06:36;;;;;;;21.33;18.17;;;;;;;1.81;85.79;96730.44;4974996;28;24533;-74
2022/03/25 05:09:03;;;;;;;20.20;18.00;;;;;;;1.80;85.79;96724.50;4974533;28;24425;-73
2022/03/25 05:11:29;;;;;;;21.92;19.00;;;;;;;1.66;86.95;96724.66;4974726;28;24434;-73
2022/03/25 05:13:57;;;;;;;21.17;17.63;;;;;;;1.62;86.38;96724.72;4974985;28;24461;-74
2022/03/25 05:16:24;;;;;;;26.00;17.75;;;;;;;1.59;86.21;96723.06;4974636;28;25067;-74
2022/03/25 05:18:51;;;;;;;23.95;19.27;;;;;;;1.56;86.76;96728.22;4974755;28;24429;-74
2022/03/25 05:21:18;;;;;;;19.77;17.50;;;;;;;1.59;86.34;96727.31;4974177;28;24537;-74
2022/03/25 05:23:44;;;;;;;20.48;18.35;;;;;;;1.59;87.30;96728.16;4974259;28;24433;-73
2022/03/25 05:26:11;;;;;;;18.95;16.90;;;;;;;1.62;86.80;96725.56;4974592;28;24433;-74
2022/03/25 05:28:37;;;;;;;20.95;17.25;;;;;;;1.65;85.99;96723.00;4974574;28;24425;-74
2022/03/25 05:31:05;;;;;;;22.10;18.08;;;;;;;1.62;87.10;96728.13;4974321;28;24429;-74
2022/03/25 05:33:32;;;;;;;20.25;17.23;;;;;;;1.53;87.45;96719.75;4974395;28;24472;-74
2022/03/25 05:35:58;;;;;;;19.88;17.77;;;;;;;1.30;90.31;96722.56;4974401;28;24425;-73
2022/03/25 05:38:25;;;;;;;22.95;18.70;;;;;;;1.28;91.69;96730.25;4974086;28;24996;-74
2022/03/25 05:40:51;;;;;;;19.63;17.70;;;;;;;1.37;92.05;96725.06;4974319;28;24532;-74
2022/03/25 05:43:18;;;;;;;22.00;17.52;;;;;;;1.42;91.19;96725.81;4974105;28;24989;-74
2022/03/25 05:45:44;;;;;;;22.13;17.93;;;;;;;1.55;90.18;96726.50;4974205;28;24449;-73
2022/03/25 05:48:12;;;;;;;23.05;17.98;;;;;;;1.70;88.79;96728.88;4973996;28;24426;-73
2022/03/25 05:50:39;;;;;;;20.02;17.75;;;;;;;1.84;88.33;96732.97;4973763;28;24491;-74
2022/03/25 05:53:06;;;;;;;22.07;18.73;;;;;;;1.96;87.91;96732.78;4973961;28;24429;-73
2022/03/25 05:55:33;;;;;;;20.08;17.98;;;;;;;2.08;87.27;96730.09;4974067;28;24524;-74
2022/03/25 05:58:01;;;;;;;19.33;16.80;;;;;;;2.15;86.88;96735.94;4973856;28;24536;-72
2022/03/25 06:00:27;;;;;;;23.70;17.75;;;;;;;2.21;86.01;96730.75;4973657;28;24533;-74
2022/03/25 06:02:53;;;;;;;22.23;17.75;;;;;;;2.25;86.28;96729.84;4973839;28;24511;-73
2022/03/25 06:05:21;;;;;;;25.40;18.30;;;;;;;2.30;86.48;96733.19;4973725;28;24421;-73
2022/03/25 06:07:48;;;;;;;20.17;16.93;;;;;;;2.38;86.34;96728.81;4973872;28;24413;-72
2022/03/25 06:10:15;;;;;;;23.33;18.23;;;;;;;2.37;86.96;96729.69;4973476;28;24492;-73
2022/03/25 06:12:42;;;;;;;21.50;18.25;;;;;;;2.30;88.21;96737.44;4973562;28;24965;-73
2022/03/25 06:15:10;;;;;;;25.10;19.05;;;;;;;2.30;89.66;96735.75;4973634;28;24429;-74
2022/03/25 06:17:45;;;;;;;22.45;18.38;;;;;;;2.37;90.35;96739.91;4973698;28;24804;-74
2022/03/25 06:20:13;;;;;;;20.77;18.17;;;;;;;2.48;90.18;96737.16;4973632;28;24531;-74
2022/03/25 06:22:41;;;;;;;23.98;17.55;;;;;;;2.63;89.08;96739.50;4973514;28;24519;-74
2022/03/25 06:25:09;;;;;;;22.13;17.15;;;;;;;2.80;89.68;96734.09;4973282;28;24422;-74
2022/03/25 06:27:35;;;;;;;21.52;17.92;;;;;;;2.91;90.43;96739.03;4973469;28;24422;-74
2022/03/25 06:30:02;;;;;;;24.33;17.92;;;;;;;3.02;89.45;96742.25;4973567;28;24824;-73
2022/03/25 06:32:28;;;;;;;25.93;19.17;;;;;;;3.09;89.28;96737.88;4974702;28;24485;-73
2022/03/25 06:34:55;;;;;;;22.02;19.00;;;;;;;3.14;90.29;96746.28;4973296;28;24488;-74
2022/03/25 06:37:22;;;;;;;21.15;18.73;;;;;;;3.22;88.51;96751.28;4972678;28;24564;-74
2022/03/25 06:39:50;;;;;;;25.65;19.65;;;;;;;3.25;88.66;96746.94;4972420;28;24425;-74
2022/03/25 06:42:16;;;;;;;22.47;20.07;;;;;;;3.33;87.35;96749.34;4973014;28;24950;-74
2022/03/25 06:44:42;;;;;;;32.95;23.00;;;;;;;3.47;88.49;96755.06;4973098;28;24451;-75
2022/03/25 06:47:09;;;;;;;30.00;24.52;;;;;;;3.57;90.43;96751.47;4973061;28;24433;-74
2022/03/25 06:49:36;;;;;;;33.58;23.13;;;;;;;3.78;90.44;96754.47;4973257;28;24429;-74
2022/03/25 06:52:03;;;;;;;28.25;21.05;;;;;;;3.98;90.36;96751.50;4972647;28;24439;-73
2022/03/25 06:54:30;;;;;;;28.10;22.52;;;;;;;4.21;89.17;96751.84;4972975;28;24429;-74
2022/03/25 06:56:59;;;;;;;25.60;20.17;;;;;;;4.40;86.61;96754.84;4972791;28;24467;-76
2022/03/25 06:59:26;;;;;;;24.17;19.48;;;;;;;4.64;84.52;96753.44;4973004;28;24464;-74
2022/03/25 07:01:53;;;;;;;24.80;18.80;;;;;;;4.71;78.33;96754.97;4972588;28;24433;-75
2022/03/25 07:04:20;;;;;;;21.42;19.13;;;;;;;4.62;78.94;96757.75;4972991;28;24799;-74
2022/03/25 07:06:49;;;;;;;24.45;19.08;;;;;;;4.41;79.07;96763.38;4972907;28;24480;-75
2022/03/25 07:09:16;;;;;;;24.20;19.63;;;;;;;4.32;80.32;96765.25;4972560;28;24836;-74
2022/03/25 07:11:43;;;;;;;21.40;18.75;;;;;;;4.34;80.04;96762.69;4972474;28;24430;-75
2022/03/25 07:14:11;;;;;;;22.02;18.48;;;;;;;4.38;79.46;96766.03;4972569;28;24432;-73
2022/03/25 07:16:42;;;;;;;28.08;19.73;;;;;;;4.39;80.16;96762.56;4972685;28;24432;-74
2022/03/25 07:19:08;;;;;;;21.43;18.33;;;;;;;4.59;80.09;96763.78;4972469;28;24795;-74
2022/03/25 07:21:35;;;;;;;23.08;18.58;;;;;;;4.69;78.04;96763.59;4972657;28;24429;-75
2022/03/25 07:24:02;;;;;;;20.90;18.38;;;;;;;4.66;78.10;96766.22;4975445;28;24436;-75
2022/03/25 07:26:28;;;;;;;23.88;19.75;;;;;;;4.83;77.61;96766.66;4973776;28;24445;-74
2022/03/25 07:28:55;;;;;;;24.63;19.17;;;;;;;4.99;76.80;96767.97;4974972;28;24516;-75
2022/03/25 07:31:28;;;;;;;22.77;18.98;;;;;;;5.16;75.76;96766.72;4968519;28;24425;-75
2022/03/25 07:33:54;;;;;;;23.20;20.08;;;;;;;5.33;74.82;96772.25;5038597;23;25055;-73
2022/03/25 07:36:21;;;;;;;26.95;20.83;;;;;;;5.59;73.67;96779.25;5022695;28;24774;-73
2022/03/25 07:38:47;;;;;;;24.00;18.92;;;;;;;5.92;72.58;96779.22;5030828;28;24446;-73
2022/03/25 07:41:14;;;;;;;29.48;21.67;;;;;;;5.94;71.23;96782.63;5030629;28;24832;-73
2022/03/25 07:43:40;;;;;;;26.67;20.67;;;;;;;6.12;70.29;96786.38;5008593;28;24496;-72
2022/03/25 07:46:07;;;;;;;21.83;19.10;;;;;;;6.29;71.01;96786.75;5010855;28;24469;-73
2022/03/25 07:48:35;;;;;;;25.13;20.00;;;;;;;6.86;72.79;96779.84;5010327;28;24953;-73
2022/03/25 07:51:02;;;;;;;27.15;21.48;;;;;;;6.84;67.54;96782.47;5010955;28;24478;-76
2022/03/25 07:53:28;;;;;;;27.13;20.95;;;;;;;6.71;67.98;96774.31;5011310;28;24484;-75
2022/03/25 07:55:55;;;;;;;27.58;21.27;;;;;;;6.88;66.61;96784.06;4999115;28;24846;-76
2022/03/25 07:58:23;;;;;;;29.05;21.77;;;;;;;7.00;65.89;96785.41;4991506;28;24875;-76
2022/03/25 08:00:50;;;;;;;26.80;21.10;;;;;;;7.21;65.20;96786.44;4991497;28;24413;-75
2022/03/25 08:03:18;;;;;;;26.90;20.60;;;;;;;7.34;65.60;96781.72;4991608;28;24436;-75
2022/03/25 08:05:47;;;;;;;24.35;20.25;;;;;;;7.61;65.90;96791.09;4991356;28;24529;-75
2022/03/25 08:08:14;;;;;;;30.40;21.25;;;;;;;7.96;63.86;96791.56;4991157;28;25069;-75
2022/03/25 08:10:41;;;;;;;27.85;21.48;;;;;;;8.03;63.14;96787.03;4991260;28;24453;-75
2022/03/25 08:13:09;;;;;;;25.48;21.13;;;;;;;8.34;62.61;96792.72;4991056;28;25028;-76
2022/03/25 08:15:36;;;;;;;27.35;21.35;;;;;;;8.82;61.10;96789.19;4991356;28;24479;-76
2022/03/25 08:18:05;;;;;;;28.15;21.90;;;;;;;8.90;59.34;96791.50;4991428;28;20854;-76
2022/03/25 08:20:35;;;;;;;25.23;21.00;;;;;;;9.33;60.16;96785.41;4991141;28;24431;-75
2022/03/25 08:23:04;;;;;;;33.42;22.38;;;;;;;9.44;56.87;96785.78;4991282;28;24467;-76
2022/03/25 08:28:16;;;;;;;26.95;21.75;;;;;;;9.41;57.16;96785.09;4991460;28;21191;-73
2022/03/25 08:30:43;;;;;;;32.05;23.45;;;;;;;9.25;57.70;96791.81;5004602;28;21270;-74
2022/03/25 08:33:11;;;;;;;31.10;23.42;;;;;;;9.50;56.76;96784.72;5004951;28;20777;-73
2022/03/25 08:35:39;;;;;;;28.15;22.42;;;;;;;9.77;56.27;96793.03;5010947;28;20830;-73
2022/03/25 08:38:08;;;;;;;26.07;22.30;;;;;;;9.99;55.85;96792.09;5010835;28;20818;-73
2022/03/25 08:40:36;;;;;;;33.65;22.42;;;;;;;10.30;54.46;96792.41;5002434;28;24424;-73
2022/03/25 08:43:04;;;;;;;31.20;23.15;;;;;;;10.43;55.13;96789.28;5006383;28;24467;-73
2022/03/25 08:45:31;;;;;;;32.35;23.15;;;;;;;10.76;55.24;96785.13;4993669;28;24445;-73
2022/03/25 08:47:58;;;;;;;28.23;22.50;;;;;;;11.42;55.13;96784.53;5007965;28;20831;-73
2022/03/25 08:50:24;;;;;;;27.87;22.93;;;;;;;11.47;52.70;96779.09;5010207;28;24519;-73
2022/03/25 08:52:53;;;;;;;30.20;23.77;;;;;;;11.43;52.39;96775.81;4995921;28;24437;-74
2022/03/25 08:55:21;;;;;;;29.10;23.08;;;;;;;11.65;52.09;96782.53;4990970;28;24432;-74
2022/03/25 08:57:48;;;;;;;29.35;22.50;;;;;;;11.91;51.52;96778.63;4990749;28;24417;-74
2022/03/25 09:00:17;;;;;;;28.90;22.80;;;;;;;12.07;50.95;96774.28;4994718;28;24524;-73
2022/03/25 09:02:44;;;;;;;27.85;21.95;;;;;;;12.32;50.99;96781.63;5001498;28;24447;-73
2022/03/25 09:05:12;;;;;;;26.55;21.40;;;;;;;12.51;50.99;96782.31;5002014;28;24439;-73
2022/03/25 09:07:39;;;;;;;29.58;23.50;;;;;;;12.74;50.60;96785.41;5012828;28;24463;-74
2022/03/25 09:10:09;;;;;;;37.13;22.05;;;;;;;13.06;51.43;96783.63;5007281;28;24437;-74
2022/03/25 09:12:38;;;;;;;31.10;21.98;;;;;;;13.39;49.88;96777.44;5004771;28;24465;-73
2022/03/25 09:15:07;;;;;;;28.05;22.55;;;;;;;13.08;50.09;96787.78;5002235;28;24843;-73
2022/03/25 09:17:33;;;;;;;28.95;23.00;;;;;;;13.08;49.74;96779.97;5003060;28;24495;-74
2022/03/25 09:19:59;;;;;;;29.27;22.40;;;;;;;13.21;49.47;96789.72;5000990;28;24642;-74
2022/03/25 09:22:26;;;;;;;30.60;22.70;;;;;;;13.31;49.27;96773.53;5007202;28;24503;-74
2022/03/25 09:24:53;;;;;;;29.00;22.25;;;;;;;13.61;48.67;96783.06;5005246;28;24527;-73
2022/03/25 09:27:19;;;;;;;33.90;22.67;;;;;;;13.60;47.99;96781.38;4998855;28;24432;-73
2022/03/25 09:29:47;;;;;;;31.60;23.52;;;;;;;13.94;47.21;96779.38;5003286;28;24440;-73
2022/03/25 09:32:14;;;;;;;23.77;21.30;;;;;;;14.10;46.89;96781.91;5001128;28;24479;-73
2022/03/25 09:37:24;;;;;;;27.40;22.10;;;;;;;14.30;46.02;96776.31;5003713;28;24560;-74
2022/03/25 09:39:51;;;;;;;25.63;20.90;;;;;;;14.80;48.61;96777.56;5008889;28;24448;-74
2022/03/25 09:42:19;;;;;;;27.17;20.57;;;;;;;15.18;46.08;96771.66;5000853;28;24441;-74
2022/03/25 09:44:48;;;;;;;37.35;22.05;;;;;;;15.18;44.74;96775.09;5003529;28;24425;-73
2022/03/25 09:47:16;;;;;;;29.35;22.45;;;;;;;15.41;42.79;96770.97;4993989;28;24429;-73
2022/03/25 09:49:43;;;;;;;26.27;22.23;;;;;;;15.95;41.55;96763.00;5001554;28;24432;-73
2022/03/25 09:52:10;;;;;;;29.00;21.27;;;;;;;16.05;41.73;96768.41;5002348;28;24810;-73
2022/03/25 09:54:37;;;;;;;28.10;21.52;;;;;;;16.15;31.45;96766.84;5002554;28;24436;-73
2022/03/25 09:57:04;;;;;;;26.67;20.50;;;;;;;16.75;34.77;96770.50;5001672;28;24443;-73
2022/03/25 09:59:30;;;;;;;25.70;20.75;;;;;;;16.80;31.03;96767.59;5000822;28;24452;-74
2022/03/25 10:01:58;;;;;;;28.67;21.45;;;;;;;16.75;33.67;96764.44;5003537;28;24793;-74
2022/03/25 10:04:41;;;;;;;25.83;20.90;;;;;;;16.14;28.74;96761.75;5001413;28;24458;-73
2022/03/25 10:07:15;;;;;;;25.33;20.65;;;;;;;16.45;30.67;96757.81;5002306;28;24463;-74
2022/03/25 10:09:42;;;;;;;29.17;21.50;;;;;;;16.85;31.11;96761.06;4999086;28;24476;-74
2022/03/25 10:12:23;;;;;;;27.42;21.63;;;;;;;16.96;29.96;96756.84;4992740;28;24433;-73
2022/03/25 10:14:51;;;;;;;33.93;23.53;;;;;;;16.99;30.54;96761.84;4993432;28;24428;-74
2022/03/25 10:17:19;;;;;;;29.92;21.13;;;;;;;16.98;28.92;96758.38;4992674;28;24543;-74
2022/03/25 10:19:53;;;;;;;34.07;22.83;;;;;;;17.13;29.89;96762.53;4995098;28;24547;-73
2022/03/25 10:22:20;;;;;;;26.58;21.08;;;;;;;17.36;34.77;96752.97;5011549;28;24551;-74
2022/03/25 10:24:49;;;;;;;28.20;21.83;;;;;;;17.40;33.95;96758.81;5011509;28;25013;-73
2022/03/25 10:27:21;;;;;;;33.78;21.45;;;;;;;17.22;28.56;96747.91;5012013;28;24536;-73
2022/03/25 10:29:50;;;;;;;38.10;23.17;;;;;;;17.41;29.90;96761.31;5011811;28;24469;-74
2022/03/25 10:32:23;;;;;;;27.20;21.13;;;;;;;17.69;29.40;96755.78;5011759;28;24571;-73
2022/03/25 10:35:02;;;;;;;31.52;20.92;;;;;;;17.49;29.95;96755.50;5011831;28;24791;-73
2022/03/25 10:37:29;;;;;;;28.93;21.10;;;;;;;16.91;27.25;96754.56;5011896;28;24984;-73
2022/03/25 10:39:56;;;;;;;22.77;19.23;;;;;;;17.13;31.26;96753.81;5011813;28;24921;-73
2022/03/25 10:42:22;;;;;;;27.67;20.95;;;;;;;17.45;30.30;96758.47;5012072;28;24420;-73
2022/03/25 10:44:49;;;;;;;26.70;20.10;;;;;;;17.46;28.72;96754.88;5011620;28;24420;-73
2022/03/25 10:47:26;;;;;;;26.95;21.05;;;;;;;17.31;32.02;96749.84;5011959;28;24459;-73
2022/03/25 10:49:53;;;;;;;27.65;20.33;;;;;;;17.18;28.62;96752.53;5011922;28;24528;-73
2022/03/25 10:52:22;;;;;;;24.40;19.55;;;;;;;17.12;30.68;96749.53;5011619;28;24428;-73
2022/03/25 10:54:49;;;;;;;26.98;20.67;;;;;;;17.33;30.87;96758.44;5011524;28;24523;-73
2022/03/25 10:57:17;;;;;;;25.15;20.27;;;;;;;17.41;31.53;96755.22;5006165;28;24440;-73
2022/03/25 10:59:43;;;;;;;24.83;20.10;;;;;;;17.45;31.49;96747.97;4994357;28;24501;-73
2022/03/25 11:02:11;;;;;;;33.63;20.50;;;;;;;17.45;32.16;96750.59;5000783;28;24483;-73
2022/03/25 11:04:41;;;;;;;28.30;22.65;;;;;;;17.44;33.58;96751.56;5000994;28;24505;-73
2022/03/25 11:07:10;;;;;;;36.55;23.23;;;;;;;17.20;31.33;96741.94;5000888;28;24439;-73
2022/03/25 11:09:37;;;;;;;30.45;23.50;;;;;;;17.42;35.13;96747.25;5000273;28;24433;-73
2022/03/25 11:12:04;;;;;;;32.28;22.33;;;;;;;17.29;32.56;96745.69;4998873;28;24437;-73
2022/03/25 11:14:31;;;;;;;28.90;22.23;;;;;;;17.39;33.23;96749.25;5008509;28;24439;-73
2022/03/25 11:16:59;;;;;;;29.17;23.83;;;;;;;17.34;32.35;96740.94;5011352;28;24976;-73
2022/03/25 11:19:26;;;;;;;40.28;24.73;;;;;;;17.32;30.51;96743.66;5011035;28;24885;-73
2022/03/25 11:21:55;;;;;;;31.38;25.58;;;;;;;17.17;32.56;96729.09;5011157;28;24502;-73
2022/03/25 11:24:24;;;;;;;32.47;25.40;;;;;;;17.31;33.43;96736.75;5011049;28;25116;-73
2022/03/25 11:26:54;;;;;;;34.80;25.90;;;;;;;17.27;32.72;96735.31;5011233;28;24464;-74
2022/03/25 11:29:26;;;;;;;31.08;25.25;;;;;;;16.75;33.57;96733.06;5011096;28;24420;-73